sensor_id;sensor_type;location;lat;lon;timestamp;pressure;altitude;pressure_sealevel;temperature;humidity
53262;BME280;39658;51.090;-1.786;2023-03-12T00:02:08;100141.09;;;6.75;100.00
53262;BME280;39658;51.090;-1.786;2023-03-12T00:04:34;100135.88;;;7.04;100.00
53262;BME280;39658;51.090;-1.786;2023-03-12T00:07:02;100154.88;;;7.22;100.00
53262;BME280;39658;51.090;-1.786;2023-03-12T00:09:33;100149.06;;;7.31;100.00
53262;BME280;39658;51.090;-1.786;2023-03-12T00:12:00;100147.03;;;7.36;100.00
53262;BME280;39658;51.090;-1.786;2023-03-12T00:14:28;100153.56;;;7.44;100.00
53262;BME280;39658;51.090;-1.786;2023-03-12T00:16:54;100147.47;;;7.43;100.00
53262;BME280;39658;51.090;-1.786;2023-03-12T00:19:21;100151.63;;;7.47;100.00
53262;BME280;39658;51.090;-1.786;2023-03-12T00:21:48;100158.97;;;7.55;100.00
53262;BME280;39658;51.090;-1.786;2023-03-12T00:24:15;100153.94;;;7.52;100.00
53262;BME280;39658;51.090;-1.786;2023-03-12T00:26:42;100156.66;;;7.50;100.00
53262;BME280;39658;51.090;-1.786;2023-03-12T00:29:09;100150.38;;;7.53;100.00
53262;BME280;39658;51.090;-1.786;2023-03-12T00:31:37;100154.50;;;7.57;100.00
53262;BME280;39658;51.090;-1.786;2023-03-12T00:34:03;100160.66;;;7.56;100.00
53262;BME280;39658;51.090;-1.786;2023-03-12T00:36:32;100152.06;;;7.54;100.00
53262;BME280;39658;51.090;-1.786;2023-03-12T00:38:59;100148.56;;;7.53;100.00
53262;BME280;39658;51.090;-1.786;2023-03-12T00:41:26;100157.22;;;7.55;100.00
53262;BME280;39658;51.090;-1.786;2023-03-12T00:43:54;100167.53;;;7.59;100.00
53262;BME280;39658;51.090;-1.786;2023-03-12T00:46:21;100168.44;;;7.58;100.00
53262;BME280;39658;51.090;-1.786;2023-03-12T00:48:49;100169.28;;;7.58;100.00
53262;BME280;39658;51.090;-1.786;2023-03-12T00:51:16;100163.94;;;7.60;100.00
53262;BME280;39658;51.090;-1.786;2023-03-12T00:53:43;100157.13;;;7.57;100.00
53262;BME280;39658;51.090;-1.786;2023-03-12T00:56:10;100155.44;;;7.56;100.00
53262;BME280;39658;51.090;-1.786;2023-03-12T00:58:37;100165.72;;;7.59;100.00
53262;BME280;39658;51.090;-1.786;2023-03-12T01:01:04;100162.91;;;7.62;100.00
53262;BME280;39658;51.090;-1.786;2023-03-12T01:03:30;100164.81;;;7.60;100.00
53262;BME280;39658;51.090;-1.786;2023-03-12T01:05:59;100158.78;;;7.58;100.00
53262;BME280;39658;51.090;-1.786;2023-03-12T01:08:25;100152.59;;;7.59;100.00
53262;BME280;39658;51.090;-1.786;2023-03-12T01:10:52;100154.22;;;7.62;100.00
53262;BME280;39658;51.090;-1.786;2023-03-12T01:13:20;100154.00;;;7.65;100.00
53262;BME280;39658;51.090;-1.786;2023-03-12T01:15:47;100145.75;;;7.57;100.00
53262;BME280;39658;51.090;-1.786;2023-03-12T01:18:13;100157.13;;;7.57;100.00
53262;BME280;39658;51.090;-1.786;2023-03-12T01:20:40;100157.84;;;7.59;100.00
53262;BME280;39658;51.090;-1.786;2023-03-12T01:23:08;100160.94;;;7.66;100.00
53262;BME280;39658;51.090;-1.786;2023-03-12T01:25:36;100150.72;;;7.61;100.00
53262;BME280;39658;51.090;-1.786;2023-03-12T01:28:03;100155.03;;;7.62;100.00
53262;BME280;39658;51.090;-1.786;2023-03-12T01:30:30;100164.59;;;7.63;100.00
53262;BME280;39658;51.090;-1.786;2023-03-12T01:32:57;100170.78;;;7.62;100.00
53262;BME280;39658;51.090;-1.786;2023-03-12T01:35:24;100175.09;;;7.63;100.00
53262;BME280;39658;51.090;-1.786;2023-03-12T01:37:51;100164.91;;;7.59;100.00
53262;BME280;39658;51.090;-1.786;2023-03-12T01:40:22;100169.09;;;7.61;100.00
53262;BME280;39658;51.090;-1.786;2023-03-12T01:42:53;100180.25;;;7.65;100.00
53262;BME280;39658;51.090;-1.786;2023-03-12T01:48:36;100166.94;;;7.53;100.00
53262;BME280;39658;51.090;-1.786;2023-03-12T01:51:05;100165.84;;;7.43;100.00
53262;BME280;39658;51.090;-1.786;2023-03-12T01:53:34;100165.28;;;7.38;100.00
53262;BME280;39658;51.090;-1.786;2023-03-12T01:56:05;100171.38;;;7.39;100.00
53262;BME280;39658;51.090;-1.786;2023-03-12T01:58:35;100177.34;;;7.41;100.00
53262;BME280;39658;51.090;-1.786;2023-03-12T02:01:03;100165.28;;;7.38;100.00
53262;BME280;39658;51.090;-1.786;2023-03-12T02:03:30;100164.53;;;7.36;100.00
53262;BME280;39658;51.090;-1.786;2023-03-12T02:06:02;100165.50;;;7.35;100.00
53262;BME280;39658;51.090;-1.786;2023-03-12T02:08:34;100168.38;;;7.30;100.00
53262;BME280;39658;51.090;-1.786;2023-03-12T02:11:03;100166.13;;;7.24;100.00
53262;BME280;39658;51.090;-1.786;2023-03-12T02:13:30;100171.47;;;7.23;100.00
53262;BME280;39658;51.090;-1.786;2023-03-12T02:15:57;100170.44;;;7.25;100.00
53262;BME280;39658;51.090;-1.786;2023-03-12T02:18:24;100180.19;;;7.23;100.00
53262;BME280;39658;51.090;-1.786;2023-03-12T02:20:56;100185.31;;;7.25;100.00
53262;BME280;39658;51.090;-1.786;2023-03-12T02:23:29;100182.34;;;7.31;100.00
53262;BME280;39658;51.090;-1.786;2023-03-12T02:25:59;100191.03;;;7.31;100.00
53262;BME280;39658;51.090;-1.786;2023-03-12T02:28:28;100188.13;;;7.36;100.00
53262;BME280;39658;51.090;-1.786;2023-03-12T02:30:57;100191.34;;;7.41;100.00
53262;BME280;39658;51.090;-1.786;2023-03-12T02:33:25;100192.91;;;7.44;100.00
53262;BME280;39658;51.090;-1.786;2023-03-12T02:35:52;100184.31;;;7.42;100.00
53262;BME280;39658;51.090;-1.786;2023-03-12T02:38:37;100163.13;;;7.45;100.00
53262;BME280;39658;51.090;-1.786;2023-03-12T02:41:10;100158.63;;;7.47;100.00
53262;BME280;39658;51.090;-1.786;2023-03-12T02:43:38;100159.28;;;7.50;100.00
53262;BME280;39658;51.090;-1.786;2023-03-12T02:46:07;100160.03;;;7.52;100.00
53262;BME280;39658;51.090;-1.786;2023-03-12T02:48:34;100165.47;;;7.49;100.00
53262;BME280;39658;51.090;-1.786;2023-03-12T02:51:00;100175.88;;;7.51;100.00
53262;BME280;39658;51.090;-1.786;2023-03-12T02:53:28;100177.75;;;7.49;100.00
53262;BME280;39658;51.090;-1.786;2023-03-12T02:55:55;100183.00;;;7.49;100.00
53262;BME280;39658;51.090;-1.786;2023-03-12T02:58:24;100193.19;;;7.53;100.00
53262;BME280;39658;51.090;-1.786;2023-03-12T03:00:50;100188.25;;;7.49;100.00
53262;BME280;39658;51.090;-1.786;2023-03-12T03:03:17;100198.72;;;7.49;100.00
53262;BME280;39658;51.090;-1.786;2023-03-12T03:05:44;100203.22;;;7.47;100.00
53262;BME280;39658;51.090;-1.786;2023-03-12T03:08:11;100215.31;;;7.49;100.00
53262;BME280;39658;51.090;-1.786;2023-03-12T03:10:37;100220.28;;;7.54;100.00
53262;BME280;39658;51.090;-1.786;2023-03-12T03:13:04;100228.13;;;7.54;100.00
53262;BME280;39658;51.090;-1.786;2023-03-12T03:15:32;100229.91;;;7.53;100.00
53262;BME280;39658;51.090;-1.786;2023-03-12T03:17:59;100233.75;;;7.48;100.00
53262;BME280;39658;51.090;-1.786;2023-03-12T03:20:28;100235.47;;;7.49;100.00
53262;BME280;39658;51.090;-1.786;2023-03-12T03:22:55;100226.72;;;7.48;100.00
53262;BME280;39658;51.090;-1.786;2023-03-12T03:25:22;100230.22;;;7.49;100.00
53262;BME280;39658;51.090;-1.786;2023-03-12T03:27:49;100234.59;;;7.48;100.00
53262;BME280;39658;51.090;-1.786;2023-03-12T03:30:17;100220.75;;;7.46;100.00
53262;BME280;39658;51.090;-1.786;2023-03-12T03:32:47;100225.06;;;7.47;100.00
53262;BME280;39658;51.090;-1.786;2023-03-12T03:35:14;100228.06;;;7.41;100.00
53262;BME280;39658;51.090;-1.786;2023-03-12T03:37:40;100211.38;;;7.42;100.00
53262;BME280;39658;51.090;-1.786;2023-03-12T03:40:08;100216.16;;;7.35;100.00
53262;BME280;39658;51.090;-1.786;2023-03-12T03:42:37;100219.97;;;7.30;100.00
53262;BME280;39658;51.090;-1.786;2023-03-12T03:45:06;100225.81;;;7.35;100.00
53262;BME280;39658;51.090;-1.786;2023-03-12T03:47:33;100216.34;;;7.32;100.00
53262;BME280;39658;51.090;-1.786;2023-03-12T03:50:01;100215.59;;;7.30;100.00
53262;BME280;39658;51.090;-1.786;2023-03-12T03:52:28;100208.47;;;7.18;100.00
53262;BME280;39658;51.090;-1.786;2023-03-12T03:54:56;100217.34;;;7.01;100.00
53262;BME280;39658;51.090;-1.786;2023-03-12T03:57:23;100206.16;;;6.97;100.00
53262;BME280;39658;51.090;-1.786;2023-03-12T03:59:50;100215.53;;;6.87;100.00
53262;BME280;39658;51.090;-1.786;2023-03-12T04:02:17;100216.69;;;6.67;100.00
53262;BME280;39658;51.090;-1.786;2023-03-12T04:04:44;100218.72;;;6.62;100.00
53262;BME280;39658;51.090;-1.786;2023-03-12T04:07:12;100223.06;;;6.47;100.00
53262;BME280;39658;51.090;-1.786;2023-03-12T04:09:39;100224.50;;;6.37;100.00
53262;BME280;39658;51.090;-1.786;2023-03-12T04:12:06;100232.09;;;6.41;100.00
53262;BME280;39658;51.090;-1.786;2023-03-12T04:14:33;100235.50;;;6.43;100.00
53262;BME280;39658;51.090;-1.786;2023-03-12T04:17:00;100244.94;;;6.46;100.00
53262;BME280;39658;51.090;-1.786;2023-03-12T04:19:26;100260.72;;;6.44;100.00
53262;BME280;39658;51.090;-1.786;2023-03-12T04:21:53;100267.94;;;6.41;100.00
53262;BME280;39658;51.090;-1.786;2023-03-12T04:24:21;100266.22;;;6.56;100.00
53262;BME280;39658;51.090;-1.786;2023-03-12T04:26:48;100274.56;;;6.62;100.00
53262;BME280;39658;51.090;-1.786;2023-03-12T04:29:16;100283.78;;;6.70;100.00
53262;BME280;39658;51.090;-1.786;2023-03-12T04:31:43;100279.94;;;6.75;100.00
53262;BME280;39658;51.090;-1.786;2023-03-12T04:34:09;100292.13;;;6.76;100.00
53262;BME280;39658;51.090;-1.786;2023-03-12T04:36:36;100279.28;;;6.72;100.00
53262;BME280;39658;51.090;-1.786;2023-03-12T04:39:03;100267.13;;;6.71;100.00
53262;BME280;39658;51.090;-1.786;2023-03-12T04:41:34;100271.13;;;6.62;100.00
53262;BME280;39658;51.090;-1.786;2023-03-12T04:44:01;100266.56;;;6.50;100.00
53262;BME280;39658;51.090;-1.786;2023-03-12T04:46:28;100260.06;;;6.41;100.00
53262;BME280;39658;51.090;-1.786;2023-03-12T04:48:55;100261.94;;;6.39;100.00
53262;BME280;39658;51.090;-1.786;2023-03-12T04:51:22;100253.56;;;6.32;100.00
53262;BME280;39658;51.090;-1.786;2023-03-12T04:53:50;100261.00;;;6.24;100.00
53262;BME280;39658;51.090;-1.786;2023-03-12T04:56:17;100259.47;;;6.04;100.00
53262;BME280;39658;51.090;-1.786;2023-03-12T04:58:45;100249.97;;;5.85;100.00
53262;BME280;39658;51.090;-1.786;2023-03-12T05:01:21;100255.69;;;5.76;100.00
53262;BME280;39658;51.090;-1.786;2023-03-12T05:03:48;100265.81;;;5.66;100.00
53262;BME280;39658;51.090;-1.786;2023-03-12T05:06:15;100269.91;;;5.54;100.00
53262;BME280;39658;51.090;-1.786;2023-03-12T05:08:42;100274.22;;;5.55;100.00
53262;BME280;39658;51.090;-1.786;2023-03-12T05:11:09;100267.13;;;5.57;100.00
53262;BME280;39658;51.090;-1.786;2023-03-12T05:13:35;100271.94;;;5.49;100.00
53262;BME280;39658;51.090;-1.786;2023-03-12T05:16:04;100269.59;;;5.61;100.00
53262;BME280;39658;51.090;-1.786;2023-03-12T05:18:31;100259.22;;;5.59;100.00
53262;BME280;39658;51.090;-1.786;2023-03-12T05:20:59;100249.94;;;5.53;100.00
53262;BME280;39658;51.090;-1.786;2023-03-12T05:23:26;100261.19;;;5.38;100.00
53262;BME280;39658;51.090;-1.786;2023-03-12T05:25:53;100256.63;;;5.42;100.00
53262;BME280;39658;51.090;-1.786;2023-03-12T05:28:20;100248.72;;;5.43;100.00
53262;BME280;39658;51.090;-1.786;2023-03-12T05:30:52;100243.66;;;5.40;100.00
53262;BME280;39658;51.090;-1.786;2023-03-12T05:33:20;100239.09;;;5.44;100.00
53262;BME280;39658;51.090;-1.786;2023-03-12T05:35:47;100247.47;;;5.50;100.00
53262;BME280;39658;51.090;-1.786;2023-03-12T05:38:14;100255.50;;;5.63;100.00
53262;BME280;39658;51.090;-1.786;2023-03-12T05:40:40;100264.97;;;5.66;100.00
53262;BME280;39658;51.090;-1.786;2023-03-12T05:43:07;100268.94;;;5.73;100.00
53262;BME280;39658;51.090;-1.786;2023-03-12T05:45:34;100281.03;;;5.75;100.00
53262;BME280;39658;51.090;-1.786;2023-03-12T05:48:01;100266.09;;;5.78;100.00
53262;BME280;39658;51.090;-1.786;2023-03-12T05:50:29;100279.44;;;5.89;100.00
53262;BME280;39658;51.090;-1.786;2023-03-12T05:52:56;100293.53;;;5.86;100.00
53262;BME280;39658;51.090;-1.786;2023-03-12T05:55:22;100276.91;;;5.87;100.00
53262;BME280;39658;51.090;-1.786;2023-03-12T05:57:49;100286.69;;;5.84;100.00
53262;BME280;39658;51.090;-1.786;2023-03-12T06:00:17;100299.59;;;5.87;100.00
53262;BME280;39658;51.090;-1.786;2023-03-12T06:02:44;100307.03;;;5.79;100.00
53262;BME280;39658;51.090;-1.786;2023-03-12T06:05:12;100314.34;;;5.72;100.00
53262;BME280;39658;51.090;-1.786;2023-03-12T06:07:40;100313.41;;;5.73;100.00
53262;BME280;39658;51.090;-1.786;2023-03-12T06:10:08;100309.13;;;5.72;100.00
53262;BME280;39658;51.090;-1.786;2023-03-12T06:12:35;100301.44;;;5.69;100.00
53262;BME280;39658;51.090;-1.786;2023-03-12T06:15:02;100311.13;;;5.67;100.00
53262;BME280;39658;51.090;-1.786;2023-03-12T06:17:29;100325.56;;;5.74;100.00
53262;BME280;39658;51.090;-1.786;2023-03-12T06:19:56;100325.56;;;5.74;100.00
53262;BME280;39658;51.090;-1.786;2023-03-12T06:22:23;100320.66;;;5.68;100.00
53262;BME280;39658;51.090;-1.786;2023-03-12T06:24:52;100312.38;;;5.60;100.00
53262;BME280;39658;51.090;-1.786;2023-03-12T06:27:18;100303.31;;;5.49;100.00
53262;BME280;39658;51.090;-1.786;2023-03-12T06:29:45;100296.25;;;5.34;100.00
53262;BME280;39658;51.090;-1.786;2023-03-12T06:32:13;100290.06;;;5.19;100.00
53262;BME280;39658;51.090;-1.786;2023-03-12T06:34:40;100295.31;;;5.00;100.00
53262;BME280;39658;51.090;-1.786;2023-03-12T06:37:06;100303.16;;;4.82;100.00
53262;BME280;39658;51.090;-1.786;2023-03-12T06:39:33;100304.00;;;4.83;100.00
53262;BME280;39658;51.090;-1.786;2023-03-12T06:42:01;100316.22;;;4.82;100.00
53262;BME280;39658;51.090;-1.786;2023-03-12T06:44:28;100306.50;;;5.03;100.00
53262;BME280;39658;51.090;-1.786;2023-03-12T06:46:55;100298.56;;;5.05;100.00
53262;BME280;39658;51.090;-1.786;2023-03-12T06:49:22;100300.03;;;5.11;100.00
53262;BME280;39658;51.090;-1.786;2023-03-12T06:51:49;100283.44;;;5.12;100.00
53262;BME280;39658;51.090;-1.786;2023-03-12T06:54:16;100299.88;;;5.14;100.00
53262;BME280;39658;51.090;-1.786;2023-03-12T06:56:43;100284.03;;;5.17;100.00
53262;BME280;39658;51.090;-1.786;2023-03-12T06:59:11;100285.28;;;5.27;100.00
53262;BME280;39658;51.090;-1.786;2023-03-12T07:01:38;100282.34;;;5.33;100.00
53262;BME280;39658;51.090;-1.786;2023-03-12T07:04:05;100274.84;;;5.43;100.00
53262;BME280;39658;51.090;-1.786;2023-03-12T07:06:32;100284.16;;;5.49;100.00
53262;BME280;39658;51.090;-1.786;2023-03-12T07:08:58;100288.06;;;5.57;100.00
53262;BME280;39658;51.090;-1.786;2023-03-12T07:11:25;100281.91;;;5.58;100.00
53262;BME280;39658;51.090;-1.786;2023-03-12T07:13:52;100284.38;;;5.62;100.00
53262;BME280;39658;51.090;-1.786;2023-03-12T07:16:20;100290.50;;;5.61;100.00
53262;BME280;39658;51.090;-1.786;2023-03-12T07:18:47;100289.50;;;5.63;100.00
53262;BME280;39658;51.090;-1.786;2023-03-12T07:21:14;100292.06;;;5.65;100.00
53262;BME280;39658;51.090;-1.786;2023-03-12T07:23:47;100285.81;;;5.67;100.00
53262;BME280;39658;51.090;-1.786;2023-03-12T07:26:14;100291.72;;;5.71;100.00
53262;BME280;39658;51.090;-1.786;2023-03-12T07:28:41;100305.41;;;5.76;100.00
53262;BME280;39658;51.090;-1.786;2023-03-12T07:31:08;100311.59;;;5.75;100.00
53262;BME280;39658;51.090;-1.786;2023-03-12T07:33:36;100312.81;;;5.68;100.00
53262;BME280;39658;51.090;-1.786;2023-03-12T07:36:04;100316.59;;;5.62;100.00
53262;BME280;39658;51.090;-1.786;2023-03-12T07:38:31;100320.75;;;5.66;100.00
53262;BME280;39658;51.090;-1.786;2023-03-12T07:40:58;100311.19;;;5.65;100.00
53262;BME280;39658;51.090;-1.786;2023-03-12T07:43:25;100321.91;;;5.61;100.00
53262;BME280;39658;51.090;-1.786;2023-03-12T07:45:52;100334.97;;;5.61;100.00
53262;BME280;39658;51.090;-1.786;2023-03-12T07:48:19;100332.13;;;5.65;100.00
53262;BME280;39658;51.090;-1.786;2023-03-12T07:50:47;100339.56;;;5.73;100.00
53262;BME280;39658;51.090;-1.786;2023-03-12T07:53:14;100338.00;;;5.86;100.00
53262;BME280;39658;51.090;-1.786;2023-03-12T07:55:42;100331.53;;;5.93;100.00
53262;BME280;39658;51.090;-1.786;2023-03-12T07:58:10;100342.56;;;6.00;100.00
53262;BME280;39658;51.090;-1.786;2023-03-12T08:00:38;100338.75;;;6.06;100.00
53262;BME280;39658;51.090;-1.786;2023-03-12T08:03:05;100351.19;;;6.18;100.00
53262;BME280;39658;51.090;-1.786;2023-03-12T08:05:31;100338.53;;;6.26;100.00
53262;BME280;39658;51.090;-1.786;2023-03-12T08:08:00;100359.41;;;6.28;100.00
53262;BME280;39658;51.090;-1.786;2023-03-12T08:10:26;100351.88;;;6.38;100.00
53262;BME280;39658;51.090;-1.786;2023-03-12T08:12:53;100360.44;;;6.57;100.00
53262;BME280;39658;51.090;-1.786;2023-03-12T08:15:20;100364.22;;;6.68;100.00
53262;BME280;39658;51.090;-1.786;2023-03-12T08:17:47;100365.50;;;6.76;100.00
53262;BME280;39658;51.090;-1.786;2023-03-12T08:20:13;100371.91;;;7.03;100.00
53262;BME280;39658;51.090;-1.786;2023-03-12T08:22:40;100377.72;;;7.08;100.00
53262;BME280;39658;51.090;-1.786;2023-03-12T08:25:09;100374.66;;;7.15;100.00
53262;BME280;39658;51.090;-1.786;2023-03-12T08:27:36;100381.63;;;7.31;100.00
53262;BME280;39658;51.090;-1.786;2023-03-12T08:30:03;100382.06;;;7.53;100.00
53262;BME280;39658;51.090;-1.786;2023-03-12T08:32:31;100377.38;;;7.44;100.00
53262;BME280;39658;51.090;-1.786;2023-03-12T08:34:57;100374.69;;;7.60;100.00
53262;BME280;39658;51.090;-1.786;2023-03-12T08:37:24;100372.59;;;7.51;100.00
53262;BME280;39658;51.090;-1.786;2023-03-12T08:39:51;100369.06;;;7.66;100.00
53262;BME280;39658;51.090;-1.786;2023-03-12T08:42:19;100371.03;;;7.63;100.00
53262;BME280;39658;51.090;-1.786;2023-03-12T08:44:46;100357.78;;;7.50;100.00
53262;BME280;39658;51.090;-1.786;2023-03-12T08:47:13;100350.88;;;7.49;100.00
53262;BME280;39658;51.090;-1.786;2023-03-12T08:49:39;100349.66;;;7.54;100.00
53262;BME280;39658;51.090;-1.786;2023-03-12T08:52:06;100340.22;;;7.66;100.00
53262;BME280;39658;51.090;-1.786;2023-03-12T08:54:33;100338.72;;;7.91;100.00
53262;BME280;39658;51.090;-1.786;2023-03-12T08:57:00;100349.97;;;7.93;100.00
53262;BME280;39658;51.090;-1.786;2023-03-12T08:59:28;100336.56;;;7.98;100.00
53262;BME280;39658;51.090;-1.786;2023-03-12T09:01:54;100332.44;;;7.94;100.00
53262;BME280;39658;51.090;-1.786;2023-03-12T09:04:21;100318.28;;;7.96;100.00
53262;BME280;39658;51.090;-1.786;2023-03-12T09:06:48;100309.09;;;8.03;100.00
53262;BME280;39658;51.090;-1.786;2023-03-12T09:09:15;100309.91;;;8.18;100.00
53262;BME280;39658;51.090;-1.786;2023-03-12T09:11:42;100313.31;;;8.62;100.00
53262;BME280;39658;51.090;-1.786;2023-03-12T09:14:08;100310.72;;;9.02;100.00
53262;BME280;39658;51.090;-1.786;2023-03-12T09:16:37;100300.44;;;10.02;100.00
53262;BME280;39658;51.090;-1.786;2023-03-12T09:19:03;100294.63;;;10.22;100.00
53262;BME280;39658;51.090;-1.786;2023-03-12T09:21:30;100283.28;;;10.46;100.00
53262;BME280;39658;51.090;-1.786;2023-03-12T09:23:57;100269.25;;;10.70;100.00
53262;BME280;39658;51.090;-1.786;2023-03-12T09:26:24;100258.47;;;10.97;100.00
53262;BME280;39658;51.090;-1.786;2023-03-12T09:28:50;100236.59;;;11.87;100.00
53262;BME280;39658;51.090;-1.786;2023-03-12T09:31:17;100224.81;;;11.35;100.00
53262;BME280;39658;51.090;-1.786;2023-03-12T09:33:46;100235.44;;;10.64;100.00
53262;BME280;39658;51.090;-1.786;2023-03-12T09:36:12;100222.56;;;10.83;100.00
53262;BME280;39658;51.090;-1.786;2023-03-12T09:38:39;100227.06;;;11.05;100.00
53262;BME280;39658;51.090;-1.786;2023-03-12T09:41:17;100216.28;;;10.73;100.00
53262;BME280;39658;51.090;-1.786;2023-03-12T09:43:49;100217.75;;;10.77;100.00
53262;BME280;39658;51.090;-1.786;2023-03-12T09:46:22;100204.06;;;12.42;100.00
53262;BME280;39658;51.090;-1.786;2023-03-12T09:48:52;100191.56;;;12.44;100.00
53262;BME280;39658;51.090;-1.786;2023-03-12T09:51:28;100182.22;;;12.61;100.00
53262;BME280;39658;51.090;-1.786;2023-03-12T09:53:58;100177.88;;;12.60;100.00
53262;BME280;39658;51.090;-1.786;2023-03-12T09:56:26;100175.41;;;13.31;100.00
53262;BME280;39658;51.090;-1.786;2023-03-12T09:58:54;100158.31;;;13.35;100.00
53262;BME280;39658;51.090;-1.786;2023-03-12T10:01:34;100175.97;;;12.83;100.00
53262;BME280;39658;51.090;-1.786;2023-03-12T10:04:11;100179.88;;;12.14;100.00
53262;BME280;39658;51.090;-1.786;2023-03-12T10:06:46;100183.47;;;12.13;100.00
53262;BME280;39658;51.090;-1.786;2023-03-12T10:09:26;100183.44;;;12.56;100.00
53262;BME280;39658;51.090;-1.786;2023-03-12T10:11:59;100174.59;;;13.71;100.00
53262;BME280;39658;51.090;-1.786;2023-03-12T10:14:37;100158.31;;;15.03;100.00
53262;BME280;39658;51.090;-1.786;2023-03-12T10:17:23;100166.72;;;13.91;100.00
53262;BME280;39658;51.090;-1.786;2023-03-12T10:20:07;100172.31;;;13.47;100.00
53262;BME280;39658;51.090;-1.786;2023-03-12T10:22:48;100180.03;;;12.33;100.00
53262;BME280;39658;51.090;-1.786;2023-03-12T10:25:23;100189.72;;;12.12;100.00
53262;BME280;39658;51.090;-1.786;2023-03-12T10:27:54;100184.41;;;12.77;100.00
53262;BME280;39658;51.090;-1.786;2023-03-12T10:30:27;100171.56;;;13.14;100.00
53262;BME280;39658;51.090;-1.786;2023-03-12T10:32:57;100166.97;;;13.16;100.00
53262;BME280;39658;51.090;-1.786;2023-03-12T10:35:27;100154.47;;;14.48;100.00
53262;BME280;39658;51.090;-1.786;2023-03-12T10:37:57;100141.75;;;14.23;100.00
53262;BME280;39658;51.090;-1.786;2023-03-12T10:40:26;100135.16;;;15.33;100.00
53262;BME280;39658;51.090;-1.786;2023-03-12T10:42:53;100116.44;;;16.52;100.00
53262;BME280;39658;51.090;-1.786;2023-03-12T10:45:26;100113.84;;;18.06;100.00
53262;BME280;39658;51.090;-1.786;2023-03-12T10:48:00;100115.16;;;17.43;100.00
53262;BME280;39658;51.090;-1.786;2023-03-12T10:50:30;100126.44;;;17.02;100.00
53262;BME280;39658;51.090;-1.786;2023-03-12T10:53:19;100118.25;;;16.25;100.00
53262;BME280;39658;51.090;-1.786;2023-03-12T10:55:58;100126.69;;;14.04;100.00
53262;BME280;39658;51.090;-1.786;2023-03-12T10:58:30;100137.22;;;13.64;100.00
53262;BME280;39658;51.090;-1.786;2023-03-12T11:01:00;100138.81;;;12.84;100.00
53262;BME280;39658;51.090;-1.786;2023-03-12T11:03:28;100136.72;;;12.25;100.00
53262;BME280;39658;51.090;-1.786;2023-03-12T11:05:58;100120.28;;;13.36;100.00
53262;BME280;39658;51.090;-1.786;2023-03-12T11:08:27;100123.09;;;13.23;100.00
53262;BME280;39658;51.090;-1.786;2023-03-12T11:10:55;100126.22;;;12.98;100.00
53262;BME280;39658;51.090;-1.786;2023-03-12T11:13:26;100138.13;;;13.13;100.00
53262;BME280;39658;51.090;-1.786;2023-03-12T11:15:54;100125.06;;;13.42;100.00
53262;BME280;39658;51.090;-1.786;2023-03-12T11:18:33;100127.97;;;15.05;100.00
53262;BME280;39658;51.090;-1.786;2023-03-12T11:21:18;100126.72;;;14.23;100.00
53262;BME280;39658;51.090;-1.786;2023-03-12T11:24:02;100126.28;;;14.47;100.00
53262;BME280;39658;51.090;-1.786;2023-03-12T11:26:36;100114.63;;;15.25;100.00
53262;BME280;39658;51.090;-1.786;2023-03-12T11:29:06;100125.59;;;14.06;100.00
53262;BME280;39658;51.090;-1.786;2023-03-12T11:31:42;100138.13;;;13.85;100.00
53262;BME280;39658;51.090;-1.786;2023-03-12T11:34:14;100143.09;;;12.75;100.00
53262;BME280;39658;51.090;-1.786;2023-03-12T11:36:52;100146.38;;;12.68;100.00
53262;BME280;39658;51.090;-1.786;2023-03-12T11:39:25;100134.38;;;12.64;100.00
53262;BME280;39658;51.090;-1.786;2023-03-12T11:42:10;100134.81;;;12.48;100.00
53262;BME280;39658;51.090;-1.786;2023-03-12T11:44:47;100138.25;;;12.27;100.00
53262;BME280;39658;51.090;-1.786;2023-03-12T11:47:27;100131.66;;;11.89;100.00
53262;BME280;39658;51.090;-1.786;2023-03-12T11:50:19;100142.97;;;11.68;100.00
53262;BME280;39658;51.090;-1.786;2023-03-12T11:53:02;100145.00;;;11.76;100.00
53262;BME280;39658;51.090;-1.786;2023-03-12T11:55:53;100144.28;;;11.74;100.00
53262;BME280;39658;51.090;-1.786;2023-03-12T11:58:32;100137.53;;;11.93;100.00
53262;BME280;39658;51.090;-1.786;2023-03-12T12:01:08;100136.72;;;11.70;100.00
53262;BME280;39658;51.090;-1.786;2023-03-12T12:04:03;100131.53;;;11.91;100.00
53262;BME280;39658;51.090;-1.786;2023-03-12T12:06:38;100117.00;;;12.50;100.00
53262;BME280;39658;51.090;-1.786;2023-03-12T12:09:18;100104.28;;;12.86;100.00
53262;BME280;39658;51.090;-1.786;2023-03-12T12:11:54;100104.09;;;12.78;100.00
53262;BME280;39658;51.090;-1.786;2023-03-12T12:14:36;100096.34;;;13.17;100.00
53262;BME280;39658;51.090;-1.786;2023-03-12T12:17:15;100087.22;;;14.20;100.00
53262;BME280;39658;51.090;-1.786;2023-03-12T12:19:58;100105.84;;;12.88;100.00
53262;BME280;39658;51.090;-1.786;2023-03-12T12:22:38;100105.97;;;12.66;100.00
53262;BME280;39658;51.090;-1.786;2023-03-12T12:25:34;100106.69;;;12.47;100.00
53262;BME280;39658;51.090;-1.786;2023-03-12T12:28:20;100093.19;;;12.29;100.00
53262;BME280;39658;51.090;-1.786;2023-03-12T12:31:01;100094.19;;;13.32;100.00
53262;BME280;39658;51.090;-1.786;2023-03-12T12:33:42;100094.94;;;12.18;100.00
53262;BME280;39658;51.090;-1.786;2023-03-12T12:36:12;100087.84;;;11.98;100.00
53262;BME280;39658;51.090;-1.786;2023-03-12T12:38:43;100092.22;;;11.54;100.00
53262;BME280;39658;51.090;-1.786;2023-03-12T12:41:16;100101.59;;;11.58;100.00
53262;BME280;39658;51.090;-1.786;2023-03-12T12:43:47;100113.13;;;11.34;100.00
53262;BME280;39658;51.090;-1.786;2023-03-12T12:46:17;100098.75;;;11.16;100.00
53262;BME280;39658;51.090;-1.786;2023-03-12T12:48:48;100098.09;;;11.57;100.00
53262;BME280;39658;51.090;-1.786;2023-03-12T12:51:19;100095.03;;;11.41;100.00
53262;BME280;39658;51.090;-1.786;2023-03-12T12:53:48;100092.44;;;11.62;100.00